Time;durP1;ratioP1;P1;durP2;ratioP2;P2;SDS_P1;SDS_P2;PMS_P1;PMS_P2;Temp;Humidity;BMP_temperature;BMP_pressure;BME280_temperature;BME280_humidity;BME280_pressure;Samples;Min_cycle;Max_cycle;Signal;HPM_P1;HPM_P2
2022/08/14 00:04:55;;;;;;;6.80;2.60;;;;;;;18.92;42.82;99597.81;10398185;28;20049;-59
2022/08/14 00:09:57;;;;;;;6.75;2.80;;;;;;;19.21;42.23;99604.59;10397527;28;20084;-59
2022/08/14 00:15:35;;;;;;;8.18;2.47;;;;;;;19.35;42.51;99595.22;10396922;28;20441;-59
2022/08/14 00:20:45;;;;;;;7.90;2.80;;;;;;;19.25;42.35;99583.88;10396978;28;20049;-59
2022/08/14 00:25:50;;;;;;;6.00;2.90;;;;;;;19.29;42.40;99575.47;10396859;28;20097;-59
2022/08/14 00:31:06;;;;;;;7.05;2.55;;;;;;;19.36;42.54;99573.84;10393864;28;20053;-59
2022/08/14 00:36:10;;;;;;;5.03;2.60;;;;;;;19.24;42.70;99571.59;10396584;28;20052;-59
2022/08/14 00:41:32;;;;;;;3.92;2.80;;;;;;;18.92;43.27;99566.03;10396807;28;20046;-59
2022/08/14 00:46:36;;;;;;;9.63;3.13;;;;;;;18.91;43.38;99559.88;10396141;28;20119;-59
2022/08/14 00:51:39;;;;;;;4.78;2.60;;;;;;;18.99;43.45;99557.28;10395800;28;20059;-59
2022/08/14 00:56:41;;;;;;;6.43;2.97;;;;;;;19.00;43.40;99558.97;10395274;28;20057;-59
2022/08/14 01:01:44;;;;;;;6.63;3.00;;;;;;;19.13;43.10;99561.25;10395251;28;20045;-59
2022/08/14 01:06:50;;;;;;;7.05;3.10;;;;;;;19.10;43.17;99543.84;10395139;28;20095;-59
2022/08/14 01:11:56;;;;;;;6.72;2.78;;;;;;;18.90;43.77;99546.78;10393683;28;20108;-59
2022/08/14 01:17:04;;;;;;;5.82;2.78;;;;;;;18.52;44.72;99542.69;10393417;28;20057;-59
2022/08/14 01:22:10;;;;;;;7.75;3.17;;;;;;;18.41;45.23;99540.22;10394570;28;20092;-59
2022/08/14 01:27:17;;;;;;;5.78;3.22;;;;;;;18.51;45.57;99535.69;10394417;28;20583;-59
2022/08/14 01:32:20;;;;;;;6.35;3.22;;;;;;;18.55;45.04;99529.13;10395033;28;20052;-59
2022/08/14 01:37:24;;;;;;;4.85;3.03;;;;;;;18.58;45.01;99531.47;10394624;28;20056;-59
2022/08/14 01:42:28;;;;;;;4.93;3.35;;;;;;;18.57;45.46;99524.50;10393706;28;20140;-59
2022/08/14 01:47:32;;;;;;;4.75;3.30;;;;;;;18.30;45.83;99506.06;10393780;28;20394;-59
2022/08/14 01:52:37;;;;;;;8.10;3.50;;;;;;;17.78;46.74;99497.03;10393525;28;20132;-59
2022/08/14 01:58:00;;;;;;;6.85;3.60;;;;;;;17.77;47.17;99488.25;10392815;28;20308;-59
2022/08/14 02:03:29;;;;;;;5.22;3.30;;;;;;;17.70;47.89;99471.31;10393392;28;20049;-59
2022/08/14 02:08:31;;;;;;;;;;;;;;;17.20;48.34;99459.38;10393504;28;20168;-59
2022/08/14 02:13:36;;;;;;;6.65;3.55;;;;;;;17.67;47.81;99450.44;10392246;28;19932;-59
2022/08/14 02:18:38;;;;;;;7.90;4.15;;;;;;;17.79;47.67;99437.84;10392976;28;20153;-59
2022/08/14 02:23:41;;;;;;;5.38;3.80;;;;;;;17.62;48.06;99433.34;10392654;28;20084;-59
2022/08/14 02:28:45;;;;;;;7.15;4.00;;;;;;;17.76;47.89;99432.84;10392524;28;20529;-59
2022/08/14 02:34:02;;;;;;;7.38;3.78;;;;;;;17.82;47.59;99442.84;10392290;28;20060;-59
2022/08/14 02:39:15;;;;;;;6.13;3.88;;;;;;;17.83;47.78;99441.88;10392319;28;20067;-59
2022/08/14 02:44:22;;;;;;;7.25;3.67;;;;;;;17.75;48.50;99447.88;10392653;28;20053;-59
2022/08/14 02:49:30;;;;;;;5.57;4.32;;;;;;;17.54;49.16;99439.41;10391075;28;20482;-59
2022/08/14 02:54:35;;;;;;;6.05;4.22;;;;;;;17.42;49.65;99443.22;10375345;28;20088;-59
2022/08/14 02:59:38;;;;;;;6.95;4.47;;;;;;;17.37;49.89;99442.81;10392272;28;20144;-59
2022/08/14 03:04:43;;;;;;;6.50;4.47;;;;;;;17.45;50.15;99444.72;10392006;28;20060;-59
2022/08/14 03:09:45;;;;;;;6.18;4.30;;;;;;;17.46;49.67;99441.94;10391714;28;20729;-59
2022/08/14 03:15:12;;;;;;;7.65;4.85;;;;;;;17.16;50.39;99439.50;10391709;28;20069;-59
2022/08/14 03:20:17;;;;;;;6.95;4.32;;;;;;;17.08;50.92;99444.69;10388694;28;20050;-59
2022/08/14 03:25:22;;;;;;;8.02;4.70;;;;;;;17.21;50.89;99442.56;10397240;28;20045;-59
2022/08/14 03:30:25;;;;;;;6.13;4.30;;;;;;;17.18;51.02;99442.84;10398114;28;20049;-59
2022/08/14 03:35:41;;;;;;;7.20;4.40;;;;;;;17.08;51.12;99444.69;10399083;28;20041;-59
2022/08/14 03:41:02;;;;;;;6.18;4.60;;;;;;;16.97;51.38;99435.16;10397500;28;20053;-59
2022/08/14 03:46:05;;;;;;;6.72;4.88;;;;;;;17.11;51.50;99440.94;10398989;28;20150;-59
2022/08/14 03:51:27;;;;;;;7.90;5.00;;;;;;;17.10;51.21;99426.88;10398259;28;20049;-59
2022/08/14 03:56:29;;;;;;;6.20;4.70;;;;;;;17.01;51.76;99419.84;10397905;28;20057;-59
2022/08/14 04:01:31;;;;;;;7.35;5.30;;;;;;;16.68;52.29;99417.72;10397623;28;20140;-59
2022/08/14 04:06:41;;;;;;;8.82;5.30;;;;;;;16.60;52.69;99407.88;10397680;28;20080;-59
2022/08/14 04:11:49;;;;;;;9.52;4.85;;;;;;;16.75;52.36;99408.25;10397621;28;20053;-59
2022/08/14 04:16:51;;;;;;;7.97;4.15;;;;;;;16.86;51.67;99411.53;10397790;28;20112;-59
2022/08/14 04:21:53;;;;;;;7.75;5.07;;;;;;;16.77;52.41;99416.88;10397456;28;20069;-59
2022/08/14 04:27:07;;;;;;;11.38;5.13;;;;;;;16.31;53.26;99408.84;10396952;28;20096;-59
2022/08/14 04:32:11;;;;;;;18.52;5.20;;;;;;;16.27;53.11;99403.00;10396549;28;20417;-59
2022/08/14 04:48:19;;;;;;;7.60;4.95;;;;;;;17.06;52.17;99398.28;10396114;28;20325;-59
2022/08/14 04:53:43;;;;;;;7.43;5.18;;;;;;;18.24;50.00;99390.19;10396267;28;20061;-59
2022/08/14 04:58:46;;;;;;;8.15;4.68;;;;;;;20.32;45.54;99383.25;10395592;28;20104;-59
2022/08/14 05:03:48;;;;;;;7.55;4.30;;;;;;;20.84;44.22;99396.03;10395551;28;20382;-59
2022/08/14 05:08:52;;;;;;;6.10;4.15;;;;;;;21.16;43.44;99391.59;10395366;28;20079;-59
2022/08/14 05:14:01;;;;;;;6.43;4.30;;;;;;;21.68;42.25;99379.41;10395057;28;20536;-60
2022/08/14 05:19:26;;;;;;;6.07;4.60;;;;;;;21.23;42.47;99380.13;10395164;28;20216;-59
2022/08/14 05:24:30;;;;;;;6.60;4.80;;;;;;;20.59;43.71;99381.13;10395008;28;20477;-59
2022/08/14 05:29:33;;;;;;;8.80;5.20;;;;;;;19.95;45.16;99389.88;10393086;28;20802;-59
2022/08/14 05:34:35;;;;;;;6.25;5.10;;;;;;;19.76;46.03;99391.97;10394613;28;20042;-59
2022/08/14 05:39:38;;;;;;;5.40;4.50;;;;;;;19.71;45.98;99389.81;10394320;28;20169;-59
2022/08/14 05:44:41;;;;;;;9.10;5.05;;;;;;;19.65;46.05;99389.63;10394127;28;20080;-59
2022/08/14 05:49:47;;;;;;;5.90;4.47;;;;;;;19.56;46.23;99382.66;10393891;28;20064;-59
2022/08/14 05:54:49;;;;;;;11.00;4.63;;;;;;;19.62;46.73;99379.34;10393491;28;20515;-59
2022/08/14 05:59:50;;;;;;;7.25;4.78;;;;;;;19.70;46.42;99374.06;10392701;28;20065;-59
2022/08/14 06:04:53;;;;;;;6.80;5.22;;;;;;;19.89;46.85;99369.31;10393462;28;20053;-60
2022/08/14 06:09:59;;;;;;;5.85;5.03;;;;;;;20.05;46.37;99369.31;10393094;28;20075;-59
2022/08/14 06:15:06;;;;;;;9.85;4.82;;;;;;;20.07;46.51;99371.81;10393027;28;20489;-59
2022/08/14 06:20:10;;;;;;;6.97;5.05;;;;;;;20.09;46.66;99367.19;10392980;28;20731;-59
2022/08/14 06:25:13;;;;;;;6.55;5.93;;;;;;;20.24;46.98;99354.88;10392985;28;20084;-59
2022/08/14 06:30:22;;;;;;;7.90;6.43;;;;;;;20.53;47.37;99360.50;10392925;28;20045;-59
2022/08/14 06:35:42;;;;;;;9.63;6.90;;;;;;;20.69;47.05;99364.97;10392592;28;20137;-60
2022/08/14 06:40:49;;;;;;;10.90;7.30;;;;;;;20.77;47.67;99355.16;10391183;28;20057;-59
2022/08/14 06:45:51;;;;;;;9.13;7.45;;;;;;;20.83;47.81;99351.81;10392231;28;20049;-59
2022/08/14 06:50:54;;;;;;;8.77;7.88;;;;;;;20.96;47.52;99341.50;10392290;28;20073;-60
2022/08/14 06:55:58;;;;;;;9.23;7.35;;;;;;;21.04;47.76;99327.34;10392127;28;20085;-59
2022/08/14 07:06:29;;;;;;;13.57;7.72;;;;;;;21.24;47.56;99322.41;10400269;28;20054;-59
2022/08/14 07:11:48;;;;;;;9.45;7.70;;;;;;;21.26;47.77;99307.09;10399731;28;20049;-59
2022/08/14 07:16:50;;;;;;;10.98;7.30;;;;;;;21.68;47.17;99294.25;10400458;28;20132;-60
2022/08/14 07:21:51;;;;;;;12.88;7.47;;;;;;;21.95;46.56;99296.34;10400026;28;20100;-59
2022/08/14 07:26:53;;;;;;;9.52;7.43;;;;;;;22.16;46.32;99279.72;10381610;28;20488;-59
2022/08/14 07:31:55;;;;;;;9.52;7.28;;;;;;;22.37;45.79;99283.31;10399705;28;20511;-59
2022/08/14 07:36:57;;;;;;;8.88;6.88;;;;;;;22.65;45.51;99268.38;10399143;28;20132;-59
2022/08/14 07:42:01;;;;;;;9.25;6.68;;;;;;;23.56;44.26;99259.84;10398903;28;20057;-59
2022/08/14 07:47:03;;;;;;;13.95;7.05;;;;;;;24.69;41.86;99263.19;10398817;28;20050;-59
2022/08/14 07:52:06;;;;;;;7.75;6.95;;;;;;;25.99;39.85;99252.09;10397572;28;20053;-59
2022/08/14 07:57:08;;;;;;;12.13;7.00;;;;;;;26.23;38.66;99262.16;10398337;28;20057;-60
2022/08/14 08:02:15;;;;;;;8.80;6.65;;;;;;;26.56;38.17;99254.09;10397959;28;20053;-60
2022/08/14 08:07:20;;;;;;;8.50;6.38;;;;;;;27.46;36.62;99265.47;10397896;28;20574;-60
2022/08/14 08:12:24;;;;;;;11.35;5.95;;;;;;;28.06;35.73;99269.41;10396569;28;20099;-60
2022/08/14 08:17:31;;;;;;;9.32;6.25;;;;;;;28.49;34.71;99261.38;10397391;28;20073;-60
2022/08/14 08:22:41;;;;;;;6.68;5.80;;;;;;;28.23;35.20;99267.00;10397328;28;20584;-60
2022/08/14 08:27:54;;;;;;;6.97;5.80;;;;;;;28.66;34.09;99258.94;10397191;28;20054;-60
2022/08/14 08:32:59;;;;;;;7.38;5.95;;;;;;;28.86;33.90;99260.38;10396960;28;20041;-60
2022/08/14 08:38:16;;;;;;;7.47;5.40;;;;;;;29.01;33.14;99241.94;10397238;28;20466;-60
2022/08/14 08:43:39;;;;;;;6.65;5.88;;;;;;;28.83;33.53;99224.97;10396633;28;20473;-60
2022/08/14 08:48:53;;;;;;;6.78;5.47;;;;;;;29.38;33.14;99229.22;10396534;28;20320;-60
2022/08/14 08:54:04;;;;;;;8.52;5.35;;;;;;;29.81;31.58;99229.00;10396332;28;20053;-59
2022/08/14 08:59:15;;;;;;;6.43;5.07;;;;;;;29.95;31.73;99229.66;10396063;28;20328;-60
2022/08/14 09:04:18;;;;;;;7.90;5.50;;;;;;;30.46;30.96;99218.97;10395523;28;20084;-59
2022/08/14 09:09:27;;;;;;;6.00;5.10;;;;;;;30.65;30.80;99215.06;10395786;28;20549;-60
2022/08/14 09:14:35;;;;;;;6.47;4.97;;;;;;;31.11;29.88;99214.94;10395827;28;20053;-59
2022/08/14 09:19:41;;;;;;;7.07;4.93;;;;;;;31.13;29.91;99209.31;10395236;28;20052;-60
2022/08/14 09:24:46;;;;;;;7.75;4.88;;;;;;;31.00;29.89;99204.19;10394740;28;20156;-59
2022/08/14 09:29:48;;;;;;;7.75;4.88;;;;;;;30.92;29.90;99174.84;10394905;28;20382;-59
2022/08/14 09:35:28;;;;;;;5.05;4.55;;;;;;;31.16;29.25;99177.25;10394448;28;20567;-59
2022/08/14 09:40:52;;;;;;;8.48;4.68;;;;;;;31.28;29.24;99171.75;10394779;28;20049;-59
2022/08/14 09:45:57;;;;;;;5.07;3.92;;;;;;;30.91;29.34;99162.38;10394249;28;20572;-59
2022/08/14 09:51:06;;;;;;;5.97;4.28;;;;;;;30.74;29.35;99156.97;10394001;28;20049;-59
2022/08/14 09:56:07;;;;;;;5.65;3.28;;;;;;;31.17;28.10;99156.44;10394135;28;20406;-59
2022/08/14 10:01:16;;;;;;;7.55;3.40;;;;;;;31.27;28.06;99159.31;10393028;28;20057;-59
2022/08/14 10:06:24;;;;;;;5.22;3.50;;;;;;;31.24;27.35;99159.81;10394098;28;20397;-59
2022/08/14 10:11:35;;;;;;;5.32;3.40;;;;;;;31.67;27.20;99133.00;10393456;28;20575;-59
2022/08/14 10:16:42;;;;;;;5.10;3.30;;;;;;;31.78;26.42;99118.53;10393309;28;20041;-59
2022/08/14 10:22:02;;;;;;;4.65;3.60;;;;;;;31.60;27.12;99108.00;10392967;28;20362;-59
2022/08/14 10:27:25;;;;;;;7.63;3.45;;;;;;;31.50;26.90;99113.25;10393005;28;20050;-59
2022/08/14 10:32:28;;;;;;;5.45;3.00;;;;;;;31.71;26.10;99108.97;10392009;28;20060;-59
2022/08/14 10:37:51;;;;;;;6.28;3.42;;;;;;;31.89;25.88;99097.88;10392899;28;20413;-60
2022/08/14 10:42:55;;;;;;;4.68;3.20;;;;;;;31.71;26.23;99095.47;10392488;28;20045;-59
2022/08/14 10:47:57;;;;;;;4.60;3.03;;;;;;;31.64;26.71;99094.81;10393004;28;20080;-60
2022/08/14 10:53:12;;;;;;;4.93;3.38;;;;;;;31.61;25.07;99093.44;10392122;28;20050;-59
2022/08/14 10:58:28;;;;;;;4.65;3.28;;;;;;;31.39;26.12;99095.22;10392456;28;20096;-60
2022/08/14 11:03:40;;;;;;;3.85;2.83;;;;;;;31.39;25.85;99093.31;10392190;28;20140;-59
2022/08/14 11:08:57;;;;;;;4.78;3.20;;;;;;;31.33;26.01;99090.81;10392289;28;20055;-59
2022/08/14 11:13:59;;;;;;;4.10;3.20;;;;;;;31.20;26.02;99078.44;10392067;28;20139;-59
2022/08/14 11:19:06;;;;;;;4.03;3.45;;;;;;;31.10;26.27;99062.06;10392551;28;20050;-59
2022/08/14 11:24:12;;;;;;;4.60;3.00;;;;;;;31.25;26.51;99047.97;10391900;28;20050;-59
2022/08/14 11:29:35;;;;;;;4.57;3.15;;;;;;;31.51;26.22;99046.50;10392494;28;20349;-59
2022/08/14 11:34:37;;;;;;;4.25;3.10;;;;;;;31.20;26.31;99045.19;10391751;28;20591;-59
2022/08/14 11:39:40;;;;;;;4.72;3.42;;;;;;;31.41;26.43;99015.50;10389928;28;20140;-59
2022/08/14 11:44:46;;;;;;;4.15;3.17;;;;;;;31.57;26.09;99016.59;10393914;28;20107;-59
2022/08/14 11:49:48;;;;;;;4.60;3.30;;;;;;;31.39;26.16;99004.13;10397717;28;20049;-59
2022/08/14 11:54:57;;;;;;;4.13;3.05;;;;;;;31.39;25.47;99004.13;10398161;28;20072;-59
2022/08/14 12:00:04;;;;;;;3.50;2.80;;;;;;;31.32;26.00;98992.69;10397883;28;20660;-59
2022/08/14 12:05:09;;;;;;;3.90;2.80;;;;;;;31.82;25.77;98989.09;10398223;28;20049;-60
2022/08/14 12:10:10;;;;;;;4.55;3.08;;;;;;;32.05;24.97;98983.44;10397769;28;20435;-60
2022/08/14 12:15:34;;;;;;;3.78;2.50;;;;;;;31.58;24.74;98974.19;10397825;28;20537;-59
2022/08/14 12:20:40;;;;;;;3.20;2.50;;;;;;;31.87;24.11;98970.22;10397475;28;20343;-60
2022/08/14 12:25:47;;;;;;;4.95;2.60;;;;;;;31.83;24.08;98969.91;10397385;28;20060;-59
2022/08/14 12:31:19;;;;;;;4.13;2.40;;;;;;;31.99;23.21;98963.63;10396666;28;20057;-59
2022/08/14 12:36:21;;;;;;;3.60;2.50;;;;;;;32.10;22.90;98954.56;10397136;28;20049;-60
2022/08/14 12:41:25;;;;;;;3.65;2.40;;;;;;;32.57;23.01;98956.69;10396862;28;20136;-59
2022/08/14 12:46:30;;;;;;;3.97;2.47;;;;;;;32.67;22.47;98967.59;10396704;28;20516;-59
2022/08/14 12:51:32;;;;;;;3.72;2.40;;;;;;;32.33;22.56;98941.81;10396874;28;20076;-60
2022/08/14 12:56:34;;;;;;;2.78;2.28;;;;;;;32.29;22.83;98937.97;10395088;28;20160;-59
2022/08/14 13:01:39;;;;;;;3.65;2.75;;;;;;;32.16;22.68;98929.19;10396282;28;20129;-59
2022/08/14 13:07:06;;;;;;;3.30;2.58;;;;;;;31.66;23.13;98934.00;10396311;28;20486;-59
2022/08/14 13:12:09;;;;;;;3.40;2.43;;;;;;;31.14;23.30;98921.91;10395931;28;20409;-59
2022/08/14 13:17:37;;;;;;;3.75;2.33;;;;;;;31.03;23.94;98901.22;10395224;28;20045;-59
2022/08/14 13:22:42;;;;;;;5.78;2.67;;;;;;;31.16;23.69;98898.16;10394856;28;20108;-59
2022/08/14 13:27:47;;;;;;;5.13;2.53;;;;;;;31.37;23.78;98894.69;10394968;28;20776;-60
2022/08/14 13:32:52;;;;;;;4.35;2.55;;;;;;;31.78;22.93;98890.63;10394518;28;20544;-60
2022/08/14 13:37:54;;;;;;;4.32;2.22;;;;;;;32.12;21.96;98876.69;10394318;28;20053;-59
2022/08/14 13:42:55;;;;;;;5.05;2.38;;;;;;;32.29;21.42;98867.63;10394087;28;20893;-59
2022/08/14 13:47:58;;;;;;;7.43;2.70;;;;;;;32.31;21.64;98862.78;10394199;28;20055;-59
2022/08/14 13:53:01;;;;;;;3.97;2.50;;;;;;;32.47;21.47;98851.00;10394355;28;20480;-59
2022/08/14 13:58:05;;;;;;;4.38;2.70;;;;;;;32.71;21.75;98849.56;10393595;28;20417;-59
2022/08/14 14:03:27;;;;;;;4.45;2.40;;;;;;;32.67;21.56;98835.75;10393693;28;20440;-60
2022/08/14 14:08:37;;;;;;;4.55;2.53;;;;;;;32.22;21.92;98840.78;10393512;28;20045;-59
2022/08/14 14:13:47;;;;;;;7.18;2.88;;;;;;;31.98;22.29;98839.44;10393482;28;20202;-59
2022/08/14 14:18:54;;;;;;;5.22;2.78;;;;;;;32.14;21.93;98838.53;10392956;28;20056;-59
2022/08/14 14:23:56;;;;;;;4.53;2.63;;;;;;;32.35;21.65;98826.81;10393201;28;20580;-59
2022/08/14 14:29:03;;;;;;;3.85;2.85;;;;;;;32.44;21.27;98816.31;10392777;28;20049;-59
2022/08/14 14:34:08;;;;;;;4.00;2.80;;;;;;;32.50;20.91;98820.72;10392775;28;20045;-59
2022/08/14 14:39:31;;;;;;;6.03;2.70;;;;;;;32.55;20.62;98816.16;10392749;28;20413;-60
2022/08/14 14:44:39;;;;;;;6.45;2.90;;;;;;;32.71;20.50;98814.38;10392871;28;20056;-59
2022/08/14 14:49:41;;;;;;;4.35;2.88;;;;;;;32.87;20.16;98813.38;10392630;28;20089;-60
2022/08/14 14:54:57;;;;;;;5.95;3.00;;;;;;;32.88;20.52;98804.19;10392311;28;20057;-59
2022/08/14 15:00:02;;;;;;;4.35;3.00;;;;;;;32.87;20.57;98807.97;10391933;28;20395;-60
2022/08/14 15:05:06;;;;;;;4.22;3.00;;;;;;;32.50;20.11;98801.78;10391739;28;20049;-60
2022/08/14 15:10:11;;;;;;;4.53;2.92;;;;;;;32.20;20.36;98803.16;10391920;28;20145;-60
2022/08/14 15:15:33;;;;;;;6.30;3.10;;;;;;;32.14;20.97;98797.97;10391992;28;20116;-59
2022/08/14 15:20:38;;;;;;;4.78;3.03;;;;;;;32.23;20.38;98797.22;10396202;28;20049;-60
2022/08/14 15:25:42;;;;;;;4.68;3.30;;;;;;;32.31;20.04;98792.41;10399746;28;20060;-59
2022/08/14 15:30:54;;;;;;;4.20;3.40;;;;;;;32.28;20.21;98787.50;10399656;28;20072;-59
2022/08/14 15:35:59;;;;;;;4.40;3.22;;;;;;;31.90;20.43;98792.03;10399448;28;20049;-60
2022/08/14 15:41:04;;;;;;;6.57;3.40;;;;;;;31.96;20.08;98780.22;10398940;28;20563;-59
2022/08/14 15:46:09;;;;;;;6.32;3.42;;;;;;;31.63;20.26;98780.44;10398942;28;20054;-59
2022/08/14 15:51:31;;;;;;;6.78;3.47;;;;;;;31.63;21.04;98782.31;10399465;28;20072;-59
2022/08/14 15:56:33;;;;;;;7.28;3.55;;;;;;;31.81;20.52;98781.94;10398226;28;20138;-59
2022/08/14 16:01:44;;;;;;;6.78;3.90;;;;;;;31.81;19.98;98774.66;10397633;28;20058;-59
2022/08/14 16:06:55;;;;;;;6.10;3.38;;;;;;;31.77;19.98;98759.19;10398169;28;20731;-59
2022/08/14 16:11:57;;;;;;;6.82;3.67;;;;;;;31.98;19.79;98764.53;10397753;28;20450;-59
2022/08/14 16:17:02;;;;;;;4.82;3.70;;;;;;;32.18;20.00;98764.72;10397978;28;20132;-58
2022/08/14 16:22:08;;;;;;;7.25;3.80;;;;;;;32.20;19.58;98762.56;10396182;28;20499;-59
2022/08/14 16:27:31;;;;;;;8.02;4.30;;;;;;;32.10;20.00;98757.09;10397494;28;20531;-59
2022/08/14 16:32:41;;;;;;;5.85;3.60;;;;;;;31.85;20.37;98753.31;10394657;28;20049;-59
2022/08/14 16:37:57;;;;;;;5.40;3.80;;;;;;;31.80;20.28;98754.06;10397358;28;20057;-59
2022/08/14 16:43:24;;;;;;;7.28;3.75;;;;;;;31.76;20.48;98744.84;10396407;28;20076;-59
2022/08/14 16:48:29;;;;;;;9.20;4.20;;;;;;;31.82;20.39;98743.81;10397164;28;20056;-59
2022/08/14 16:53:51;;;;;;;6.93;4.03;;;;;;;31.82;20.37;98734.91;10396578;28;20091;-59
2022/08/14 16:59:23;;;;;;;8.07;3.70;;;;;;;31.49;20.65;98735.13;10395888;28;20140;-59
2022/08/14 17:04:34;;;;;;;6.97;4.05;;;;;;;31.48;20.96;98734.28;10392724;28;20046;-59
2022/08/14 17:09:51;;;;;;;8.27;4.03;;;;;;;31.20;21.35;98729.94;10394490;28;20208;-59
2022/08/14 17:15:04;;;;;;;5.95;3.90;;;;;;;31.10;21.94;98723.59;10395521;28;20088;-59
2022/08/14 17:20:16;;;;;;;8.25;4.00;;;;;;;30.97;22.35;98727.50;10394970;28;20498;-59
2022/08/14 17:25:37;;;;;;;5.20;3.72;;;;;;;30.83;22.66;98728.09;10395609;28;20055;-59
2022/08/14 17:30:47;;;;;;;6.32;3.83;;;;;;;30.71;23.34;98727.41;10394976;28;20417;-59
2022/08/14 17:35:49;;;;;;;6.20;4.15;;;;;;;30.52;23.98;98716.09;10394942;28;20144;-59
2022/08/14 17:41:20;;;;;;;5.90;3.90;;;;;;;30.30;24.55;98720.59;10394006;28;20483;-59
2022/08/14 17:46:48;;;;;;;7.35;3.80;;;;;;;30.14;25.49;98724.13;10394232;28;20429;-59
2022/08/14 17:52:06;;;;;;;6.80;4.05;;;;;;;29.96;25.71;98719.81;10393774;28;20340;-59
2022/08/14 17:57:22;;;;;;;6.13;3.63;;;;;;;29.80;25.50;98720.63;10393690;28;20417;-59
2022/08/14 18:02:26;;;;;;;7.53;3.88;;;;;;;29.66;25.65;98725.47;10393448;28;20054;-59
2022/08/14 18:07:33;;;;;;;7.88;3.70;;;;;;;29.46;25.78;98730.50;10393665;28;20052;-59
2022/08/14 18:12:55;;;;;;;13.00;4.50;;;;;;;29.27;26.21;98730.94;10394018;28;20060;-59
2022/08/14 18:18:00;;;;;;;12.63;4.40;;;;;;;29.06;26.79;98730.53;10393221;28;20128;-59
2022/08/14 18:23:05;;;;;;;6.20;3.83;;;;;;;28.81;27.26;98727.28;10393202;28;20655;-59
2022/08/14 18:28:14;;;;;;;8.57;3.97;;;;;;;28.56;27.55;98728.66;10393294;28;20046;-59
2022/08/14 18:33:34;;;;;;;6.15;3.78;;;;;;;28.36;27.82;98734.38;10392863;28;20563;-59
2022/08/14 18:38:42;;;;;;;6.30;3.72;;;;;;;28.11;28.35;98729.22;10393003;28;20060;-59
2022/08/14 18:44:00;;;;;;;6.72;3.80;;;;;;;27.87;28.81;98727.53;10392284;28;20057;-59
2022/08/14 18:49:15;;;;;;;7.63;4.25;;;;;;;27.59;29.73;98723.81;10392604;28;20136;-59
2022/08/14 18:54:27;;;;;;;7.30;3.72;;;;;;;27.37;30.04;98731.59;10394607;28;20188;-59
2022/08/14 18:59:38;;;;;;;5.60;3.90;;;;;;;27.15;30.31;98744.69;10400234;28;20313;-59
2022/08/14 19:04:42;;;;;;;6.65;3.70;;;;;;;26.97;30.55;98747.38;10401288;28;20053;-58
2022/08/14 19:10:19;;;;;;;5.43;3.33;;;;;;;26.78;31.02;98745.72;10400238;28;20143;-58
2022/08/14 19:15:33;;;;;;;5.63;3.65;;;;;;;26.62;31.23;98757.88;10396081;28;20559;-59
2022/08/14 19:20:49;;;;;;;6.35;4.00;;;;;;;26.46;31.78;98763.78;10399664;28;20064;-59
2022/08/14 19:26:02;;;;;;;6.20;3.65;;;;;;;26.21;32.12;98759.50;10399812;28;20089;-59
2022/08/14 19:31:27;;;;;;;4.40;3.30;;;;;;;25.69;32.56;98750.78;10399821;28;20060;-59
2022/08/14 19:36:52;;;;;;;6.57;3.85;;;;;;;25.49;33.00;98752.78;10399607;28;21257;-59
2022/08/14 19:42:07;;;;;;;7.90;3.70;;;;;;;25.40;33.24;98751.41;10399286;28;20053;-59
2022/08/14 19:47:13;;;;;;;6.38;3.70;;;;;;;25.41;33.39;98755.72;10398466;28;20057;-59
2022/08/14 19:52:18;;;;;;;4.55;3.47;;;;;;;25.30;33.55;98758.22;10398606;28;20140;-59
2022/08/14 19:57:29;;;;;;;9.73;4.07;;;;;;;25.24;33.93;98765.25;10396893;28;20067;-59
2022/08/14 20:02:31;;;;;;;8.27;4.10;;;;;;;25.19;33.87;98770.41;10398017;28;20532;-58
2022/08/14 20:07:41;;;;;;;7.60;3.78;;;;;;;25.04;35.03;98767.19;10397442;28;20057;-59
2022/08/14 20:13:08;;;;;;;6.00;3.47;;;;;;;24.92;35.27;98771.53;10397575;28;20420;-59
2022/08/14 20:18:10;;;;;;;6.15;3.78;;;;;;;24.82;35.48;98768.50;10397453;28;20073;-59
2022/08/14 20:23:32;;;;;;;5.63;3.90;;;;;;;24.66;35.83;98774.28;10397361;28;20449;-59
2022/08/14 20:28:39;;;;;;;7.93;3.83;;;;;;;24.17;36.64;98774.75;10397318;28;20501;-58
2022/08/14 20:34:07;;;;;;;6.22;4.05;;;;;;;24.02;37.06;98772.25;10396795;28;20789;-59
2022/08/14 20:39:28;;;;;;;9.23;4.13;;;;;;;23.67;37.24;98776.13;10396506;28;20067;-59
2022/08/14 20:50:17;;;;;;;7.72;4.10;;;;;;;23.75;37.20;98775.09;10395985;28;20504;-59
2022/08/14 20:55:31;;;;;;;6.70;4.15;;;;;;;23.82;36.95;98773.28;10396158;28;20092;-58
2022/08/14 21:00:43;;;;;;;8.52;3.97;;;;;;;23.74;37.14;98782.28;10395676;28;20139;-59
2022/08/14 21:05:55;;;;;;;5.88;3.72;;;;;;;23.72;37.10;98768.31;10395528;28;20060;-59
2022/08/14 21:10:58;;;;;;;7.38;4.15;;;;;;;23.59;37.40;98771.00;10395656;28;20136;-59
2022/08/14 21:16:02;;;;;;;5.60;3.80;;;;;;;23.39;38.07;98772.75;10395094;28;20493;-59
2022/08/14 21:21:08;;;;;;;8.68;4.32;;;;;;;23.25;38.22;98779.06;10394877;28;20412;-59
2022/08/14 21:26:11;;;;;;;7.40;3.63;;;;;;;23.23;38.15;98781.94;10394916;28;20402;-59
2022/08/14 21:31:14;;;;;;;8.50;3.50;;;;;;;23.21;38.16;98777.81;10394836;28;20072;-59
2022/08/14 21:36:16;;;;;;;7.72;3.83;;;;;;;23.17;37.93;98773.91;10394602;28;20124;-58
2022/08/14 21:41:26;;;;;;;9.10;3.90;;;;;;;23.08;38.30;98764.44;10394085;28;20061;-58
2022/08/14 21:46:55;;;;;;;6.25;3.85;;;;;;;22.99;38.46;98770.94;10394541;28;20068;-59
2022/08/14 21:52:00;;;;;;;4.57;3.70;;;;;;;22.93;38.88;98772.56;10394250;28;20068;-59
2022/08/14 21:57:24;;;;;;;5.28;4.03;;;;;;;22.90;38.78;98769.50;10393546;28;20487;-59
2022/08/14 22:02:51;;;;;;;12.13;4.00;;;;;;;22.80;38.91;98769.03;10393574;28;20060;-59
2022/08/14 22:07:56;;;;;;;5.32;4.07;;;;;;;22.74;39.01;98761.81;10393219;28;20088;-58
2022/08/14 22:12:58;;;;;;;11.68;4.05;;;;;;;22.70;39.30;98764.84;10393926;28;20397;-59
2022/08/14 22:18:05;;;;;;;7.90;4.20;;;;;;;22.64;39.50;98770.13;10393392;28;20099;-59
2022/08/14 22:23:09;;;;;;;5.57;3.70;;;;;;;22.54;39.75;98767.81;10393117;28;20085;-59
2022/08/14 22:28:18;;;;;;;6.45;4.03;;;;;;;22.14;40.61;98773.06;10391848;28;20144;-58
2022/08/14 22:33:20;;;;;;;6.10;4.20;;;;;;;21.96;40.64;98768.19;10393213;28;20169;-59
2022/08/14 22:38:21;;;;;;;6.72;3.90;;;;;;;21.62;41.46;98762.75;10392879;28;20168;-58
2022/08/14 22:43:37;;;;;;;5.75;4.00;;;;;;;21.42;41.96;98761.72;10392699;28;20271;-58
2022/08/14 22:48:43;;;;;;;5.25;3.92;;;;;;;21.73;41.45;98764.91;10392924;28;20476;-58
2022/08/14 22:53:48;;;;;;;5.07;3.67;;;;;;;21.83;41.39;98763.56;10392100;28;20084;-59
2022/08/14 22:58:53;;;;;;;6.53;4.00;;;;;;;21.80;41.62;98771.91;10392676;28;20053;-58
2022/08/14 23:03:58;;;;;;;5.07;3.97;;;;;;;21.66;42.04;98767.50;10392123;28;20433;-58
2022/08/14 23:09:00;;;;;;;7.38;4.40;;;;;;;21.64;41.97;98756.22;10392085;28;20077;-58
2022/08/14 23:14:23;;;;;;;4.57;3.70;;;;;;;21.68;41.95;98751.34;10392716;28;20061;-59
2022/08/14 23:19:31;;;;;;;4.85;3.85;;;;;;;21.72;41.54;98749.97;10391744;28;20052;-59
2022/08/14 23:24:36;;;;;;;6.88;3.90;;;;;;;21.68;41.84;98746.03;10392394;28;20049;-58
2022/08/14 23:29:43;;;;;;;5.38;3.88;;;;;;;21.61;42.05;98747.78;10392679;28;20049;-59
2022/08/14 23:34:45;;;;;;;4.40;4.00;;;;;;;21.39;42.38;98757.63;10391839;28;20058;-58
2022/08/14 23:39:51;;;;;;;5.00;3.60;;;;;;;21.45;41.66;98758.69;10392992;28;20433;-58
2022/08/14 23:44:54;;;;;;;4.50;3.58;;;;;;;21.65;41.48;98754.38;10399218;28;20045;-58
2022/08/14 23:49:57;;;;;;;5.07;4.10;;;;;;;21.80;41.57;98752.50;10399454;28;20096;-59
2022/08/14 23:55:05;;;;;;;6.40;3.92;;;;;;;21.80;41.21;98749.81;10398551;28;20054;-58
